Time;durP1;ratioP1;P1;durP2;ratioP2;P2;SDS_P1;SDS_P2;PMS_P1;PMS_P2;Temp;Humidity;BMP_temperature;BMP_pressure;BME280_temperature;BME280_humidity;BME280_pressure;Samples;Min_cycle;Max_cycle;Signal;HPM_P1;HPM_P2
2021/04/07 00:02:22;;;;;;;17.62;8.83;;;;;;;-2.93;77.44;95526.16;1732620;81;21514;-85
2021/04/07 00:05:03;;;;;;;20.77;9.55;;;;;;;-2.93;77.25;95524.87;1734347;81;21247;-82
2021/04/07 00:07:30;;;;;;;20.05;8.23;;;;;;;-2.92;77.15;95526.95;1740036;81;21455;-83
2021/04/07 00:09:58;;;;;;;19.35;8.55;;;;;;;-2.89;77.01;95532.48;1733695;81;21523;-83
2021/04/07 00:12:25;;;;;;;15.85;8.60;;;;;;;-2.86;76.92;95533.84;1727607;81;21095;-83
2021/04/07 00:14:52;;;;;;;20.77;7.67;;;;;;;-2.86;76.94;95541.63;1734569;81;21125;-83
2021/04/07 00:17:19;;;;;;;18.45;9.00;;;;;;;-2.86;77.03;95541.12;1729365;81;21125;-83
2021/04/07 00:19:46;;;;;;;18.82;8.48;;;;;;;-2.88;77.08;95544.95;1734424;81;21102;-83
2021/04/07 00:22:13;;;;;;;16.87;7.67;;;;;;;-2.89;77.03;95543.36;1733758;83;21136;-83
2021/04/07 00:24:40;;;;;;;14.80;8.20;;;;;;;-2.89;77.05;95550.64;1734163;81;21497;-83
2021/04/07 00:27:11;;;;;;;18.40;8.43;;;;;;;-2.88;77.12;95547.54;1716056;81;21448;-83
2021/04/07 00:29:37;;;;;;;16.50;8.53;;;;;;;-2.90;77.17;95552.95;1734235;81;21093;-83
2021/04/07 00:32:05;;;;;;;17.32;9.00;;;;;;;-2.94;77.19;95551.02;1734135;81;21478;-84
2021/04/07 00:34:34;;;;;;;17.12;9.33;;;;;;;-2.96;77.22;95552.51;1734135;81;21125;-83
2021/04/07 00:37:01;;;;;;;16.87;8.45;;;;;;;-2.97;77.31;95556.11;1734089;83;21645;-83
2021/04/07 00:39:28;;;;;;;16.60;9.48;;;;;;;-3.02;77.26;95550.30;1750800;81;21130;-83
2021/04/07 00:42:03;;;;;;;16.23;9.35;;;;;;;-3.05;77.36;95557.73;1729325;83;21180;-83
2021/04/07 00:44:30;;;;;;;14.90;7.85;;;;;;;-3.10;77.59;95564.84;1731655;81;21240;-84
2021/04/07 00:46:58;;;;;;;15.70;9.25;;;;;;;-3.15;77.62;95559.53;1723942;83;21543;-83
2021/04/07 00:49:27;;;;;;;16.50;9.10;;;;;;;-3.18;77.74;95562.56;1733767;82;21134;-83
2021/04/07 00:51:55;;;;;;;16.15;8.10;;;;;;;-3.21;77.57;95559.12;1723222;81;22301;-83
2021/04/07 00:54:23;;;;;;;15.50;7.70;;;;;;;-3.20;77.50;95564.59;1730297;81;21490;-83
2021/04/07 00:56:53;;;;;;;16.52;8.53;;;;;;;-3.20;77.53;95567.69;1745641;81;21263;-83
2021/04/07 00:59:22;;;;;;;13.20;6.30;;;;;;;-3.21;77.42;95569.48;1707794;83;21160;-84
2021/04/07 01:01:50;;;;;;;12.85;7.17;;;;;;;-3.20;77.35;95567.18;1732274;83;21136;-83
2021/04/07 01:04:19;;;;;;;14.03;7.67;;;;;;;-3.17;77.31;95568.03;1727701;82;21100;-83
2021/04/07 01:06:47;;;;;;;12.55;6.67;;;;;;;-3.15;77.36;95563.92;1739980;82;21354;-83
2021/04/07 01:09:14;;;;;;;13.35;7.00;;;;;;;-3.13;77.44;95571.77;1727216;83;21253;-83
2021/04/07 01:11:41;;;;;;;10.78;6.15;;;;;;;-3.11;77.52;95568.95;1736966;80;21502;-83
2021/04/07 01:14:08;;;;;;;12.58;7.25;;;;;;;-3.11;77.30;95578.81;1738875;81;21527;-83
2021/04/07 01:16:37;;;;;;;11.08;5.37;;;;;;;-3.11;77.27;95577.52;1739757;81;21312;-83
2021/04/07 01:19:10;;;;;;;11.60;7.45;;;;;;;-3.12;77.49;95578.53;1728276;83;21466;-83
2021/04/07 01:21:39;;;;;;;9.25;5.47;;;;;;;-3.14;77.32;95576.67;1736966;82;21139;-83
2021/04/07 01:24:11;;;;;;;14.87;7.80;;;;;;;-3.15;77.50;95573.79;1727750;81;21263;-83
2021/04/07 01:26:38;;;;;;;14.23;7.35;;;;;;;-3.15;77.45;95582.07;1728496;83;21296;-83
2021/04/07 01:29:05;;;;;;;12.60;7.00;;;;;;;-3.14;77.29;95575.37;1728707;82;21145;-83
2021/04/07 01:31:33;;;;;;;14.45;7.30;;;;;;;-3.15;77.17;95581.56;1728292;82;21285;-83
2021/04/07 01:34:00;;;;;;;9.33;5.83;;;;;;;-3.16;76.98;95576.09;1738015;82;21490;-83
2021/04/07 01:36:27;;;;;;;11.48;6.12;;;;;;;-3.12;76.92;95578.53;1728367;83;21636;-83
2021/04/07 01:38:54;;;;;;;11.73;5.95;;;;;;;-3.08;76.77;95582.30;1729443;81;21189;-83
2021/04/07 01:41:22;;;;;;;13.22;6.00;;;;;;;-3.07;76.62;95577.91;1745199;81;21123;-83
2021/04/07 01:43:50;;;;;;;13.32;6.17;;;;;;;-3.06;76.46;95578.97;1734272;82;21135;-83
2021/04/07 01:46:18;;;;;;;10.63;6.50;;;;;;;-3.05;76.32;95587.03;1717899;83;21162;-83
2021/04/07 01:48:46;;;;;;;11.88;6.35;;;;;;;-3.08;76.25;95580.20;1711391;83;21139;-83
2021/04/07 01:51:13;;;;;;;13.08;6.90;;;;;;;-3.06;76.18;95582.08;1729310;82;21326;-83
2021/04/07 01:53:40;;;;;;;13.40;5.60;;;;;;;-3.03;76.07;95585.02;1725151;81;21150;-83
2021/04/07 01:56:10;;;;;;;12.88;5.83;;;;;;;-2.99;75.95;95583.56;1745302;82;21141;-83
2021/04/07 01:58:38;;;;;;;8.85;4.87;;;;;;;-2.93;75.85;95578.03;1731690;82;21534;-83
2021/04/07 02:01:06;;;;;;;13.32;6.50;;;;;;;-2.90;75.61;95576.28;1716725;82;21178;-83
2021/04/07 02:03:34;;;;;;;11.65;5.58;;;;;;;-2.89;75.49;95583.56;1739112;81;21114;-83
2021/04/07 02:06:02;;;;;;;12.28;5.92;;;;;;;-2.91;75.43;95587.67;1728238;81;21500;-83
2021/04/07 02:08:29;;;;;;;12.45;5.45;;;;;;;-2.92;75.37;95583.50;1724218;82;21188;-83
2021/04/07 02:10:56;;;;;;;8.80;5.00;;;;;;;-2.90;75.25;95583.27;1720771;81;21119;-83
2021/04/07 02:13:23;;;;;;;9.85;4.65;;;;;;;-2.89;75.14;95576.56;1721559;83;21483;-83
2021/04/07 02:15:51;;;;;;;10.40;5.05;;;;;;;-2.87;75.05;95575.84;1727121;81;21585;-83
2021/04/07 02:18:18;;;;;;;10.08;5.80;;;;;;;-2.84;74.94;95577.98;1718954;81;21111;-83
2021/04/07 02:20:45;;;;;;;11.60;6.20;;;;;;;-2.80;74.76;95583.05;1734239;81;21121;-83
2021/04/07 02:23:12;;;;;;;11.57;5.40;;;;;;;-2.81;74.61;95580.67;1733924;81;21110;-83
2021/04/07 02:25:39;;;;;;;11.08;6.12;;;;;;;-2.81;74.55;95584.56;1731111;81;21143;-83
2021/04/07 02:28:06;;;;;;;8.38;5.00;;;;;;;-2.82;74.41;95582.45;1734048;82;21134;-83
2021/04/07 02:30:33;;;;;;;13.03;6.50;;;;;;;-2.84;74.29;95587.06;1734641;81;21548;-83
2021/04/07 02:33:01;;;;;;;9.50;5.53;;;;;;;-2.87;74.24;95581.53;1734676;81;21554;-83
2021/04/07 02:35:28;;;;;;;9.40;4.20;;;;;;;-2.88;74.23;95585.93;1727929;81;21151;-83
2021/04/07 02:37:55;;;;;;;9.00;5.40;;;;;;;-2.89;74.13;95599.12;1733222;83;21288;-83
2021/04/07 02:40:22;;;;;;;11.60;5.58;;;;;;;-2.91;74.16;95592.06;1751130;81;21141;-83
2021/04/07 02:42:49;;;;;;;9.85;5.25;;;;;;;-2.93;74.20;95600.57;1725207;83;21122;-82
2021/04/07 02:45:16;;;;;;;10.10;6.25;;;;;;;-2.95;74.14;95598.20;1726623;83;21126;-83
2021/04/07 02:47:43;;;;;;;7.87;5.20;;;;;;;-3.00;74.18;95593.64;1733951;83;21136;-82
2021/04/07 02:50:13;;;;;;;9.95;5.40;;;;;;;-3.01;74.17;95593.36;1743864;81;21285;-83
2021/04/07 02:52:40;;;;;;;9.95;5.47;;;;;;;-3.00;74.16;95590.27;1754795;81;21170;-83
2021/04/07 02:55:08;;;;;;;7.45;3.85;;;;;;;-3.02;74.08;95595.67;1719700;83;21506;-83
2021/04/07 02:57:35;;;;;;;11.15;5.85;;;;;;;-3.05;74.15;95588.84;1739010;81;21176;-83
2021/04/07 03:00:04;;;;;;;9.08;4.67;;;;;;;-3.12;74.14;95591.49;1744132;81;21271;-83
2021/04/07 03:02:31;;;;;;;11.55;5.92;;;;;;;-3.13;74.18;95597.69;1707576;83;21150;-83
2021/04/07 03:04:58;;;;;;;6.47;3.85;;;;;;;-3.16;74.21;95599.42;1753738;81;21219;-83
2021/04/07 03:07:26;;;;;;;9.85;4.80;;;;;;;-3.17;74.18;95604.32;1732981;83;21129;-83
2021/04/07 03:09:54;;;;;;;10.15;5.80;;;;;;;-3.22;74.28;95604.19;1731571;81;21163;-83
2021/04/07 03:12:28;;;;;;;10.90;5.55;;;;;;;-3.22;74.29;95608.58;1733670;81;21164;-88
2021/04/07 03:14:55;;;;;;;9.23;5.15;;;;;;;-3.22;74.20;95608.08;1735392;81;21230;-83
2021/04/07 03:17:22;;;;;;;8.95;4.90;;;;;;;-3.25;74.29;95611.58;1720980;82;21143;-82
2021/04/07 03:19:49;;;;;;;8.95;5.37;;;;;;;-3.25;74.23;95608.98;1724778;81;21617;-82
2021/04/07 03:22:16;;;;;;;10.72;5.08;;;;;;;-3.28;74.13;95605.03;1731721;81;21489;-82
2021/04/07 03:24:43;;;;;;;9.73;5.33;;;;;;;-3.28;74.14;95605.03;1723320;81;21091;-82
2021/04/07 03:27:10;;;;;;;7.10;4.28;;;;;;;-3.32;74.11;95614.26;1727022;81;21588;-82
2021/04/07 03:29:37;;;;;;;10.32;5.83;;;;;;;-3.32;74.26;95611.16;1714793;81;21507;-82
2021/04/07 03:32:05;;;;;;;8.80;5.10;;;;;;;-3.34;74.26;95618.87;1732247;81;21493;-82
2021/04/07 03:34:32;;;;;;;5.40;3.92;;;;;;;-3.34;74.15;95613.69;1716177;81;21131;-82
2021/04/07 03:36:59;;;;;;;11.08;5.87;;;;;;;-3.34;74.26;95613.18;1723273;83;21653;-82
2021/04/07 03:39:26;;;;;;;9.00;4.67;;;;;;;-3.35;74.30;95612.89;1739891;81;21136;-82
2021/04/07 03:41:53;;;;;;;11.05;4.90;;;;;;;-3.37;74.31;95611.53;1720961;80;21127;-82
2021/04/07 03:44:22;;;;;;;10.43;4.97;;;;;;;-3.38;74.27;95613.80;1716695;83;21118;-82
2021/04/07 03:46:54;;;;;;;6.60;3.98;;;;;;;-3.39;74.19;95621.29;1717823;81;21229;-82
2021/04/07 03:49:21;;;;;;;10.50;5.37;;;;;;;-3.33;74.15;95620.45;1719171;83;21497;-82
2021/04/07 03:51:49;;;;;;;7.30;4.67;;;;;;;-3.26;74.02;95630.73;1736178;81;21134;-82
2021/04/07 03:54:17;;;;;;;9.13;4.40;;;;;;;-3.29;73.90;95626.78;1722598;81;21129;-82
2021/04/07 03:56:44;;;;;;;7.58;4.30;;;;;;;-3.29;73.90;95631.45;1713051;81;21095;-84
2021/04/07 03:59:11;;;;;;;9.58;5.20;;;;;;;-3.31;73.83;95634.77;1733206;81;21337;-83
2021/04/07 04:01:38;;;;;;;8.95;4.70;;;;;;;-3.31;73.83;95637.36;1735778;81;21703;-83
2021/04/07 04:04:05;;;;;;;10.28;5.40;;;;;;;-3.28;73.83;95633.55;1729702;81;21126;-83
2021/04/07 04:06:33;;;;;;;8.28;5.22;;;;;;;-3.23;73.87;95640.70;1729759;81;21135;-83
2021/04/07 04:09:00;;;;;;;7.05;4.22;;;;;;;-3.18;73.86;95645.51;1712688;81;21272;-83
2021/04/07 04:11:27;;;;;;;8.40;4.60;;;;;;;-3.13;73.79;95652.12;1715698;83;21114;-83
2021/04/07 04:13:54;;;;;;;6.12;3.35;;;;;;;-3.04;73.80;95651.34;1732358;82;21135;-83
2021/04/07 04:16:21;;;;;;;6.58;4.25;;;;;;;-2.97;73.79;95652.05;1730830;81;21162;-83
2021/04/07 04:18:49;;;;;;;9.35;4.70;;;;;;;-2.82;73.84;95644.69;1727070;82;21131;-83
2021/04/07 04:21:17;;;;;;;5.08;3.72;;;;;;;-2.59;73.78;95651.02;1724346;82;21524;-83
2021/04/07 04:23:44;;;;;;;7.70;5.00;;;;;;;-2.46;73.48;95643.06;1726294;83;21125;-83
2021/04/07 04:26:11;;;;;;;7.40;4.97;;;;;;;-2.38;73.03;95653.66;1728559;82;21107;-83
2021/04/07 04:28:37;;;;;;;9.05;4.85;;;;;;;-2.33;72.92;95655.86;1728598;82;21137;-83
2021/04/07 04:31:05;;;;;;;8.53;4.92;;;;;;;-2.30;72.77;95658.02;1728642;82;21170;-83
2021/04/07 04:33:31;;;;;;;4.87;2.52;;;;;;;-2.26;72.68;95657.06;1728475;81;21100;-83
2021/04/07 04:35:58;;;;;;;9.73;4.42;;;;;;;-2.25;72.43;95659.94;1731805;82;21177;-83
2021/04/07 04:38:26;;;;;;;6.97;4.47;;;;;;;-2.25;72.45;95662.05;1723555;82;21139;-83
2021/04/07 04:40:53;;;;;;;11.33;5.40;;;;;;;-2.22;72.42;95670.70;1717510;83;21147;-83
2021/04/07 04:43:21;;;;;;;8.60;4.75;;;;;;;-2.20;72.53;95680.86;1717636;83;21122;-83
2021/04/07 04:45:48;;;;;;;8.75;5.45;;;;;;;-2.18;72.36;95672.34;1726072;83;21173;-83
2021/04/07 04:48:15;;;;;;;10.53;5.15;;;;;;;-2.16;72.28;95683.28;1725985;83;21153;-83
2021/04/07 04:50:42;;;;;;;5.35;3.58;;;;;;;-2.15;72.24;95680.98;1714803;83;21163;-83
2021/04/07 04:53:09;;;;;;;9.35;4.80;;;;;;;-2.12;72.04;95684.42;1715813;81;21131;-83
2021/04/07 04:55:36;;;;;;;8.83;5.55;;;;;;;-2.08;72.12;95689.48;1710747;83;21174;-84
2021/04/07 04:58:04;;;;;;;10.43;6.20;;;;;;;-2.06;72.11;95687.45;1710513;83;21149;-82
2021/04/07 05:00:34;;;;;;;9.60;5.92;;;;;;;-2.01;72.11;95691.97;1719230;83;21328;-82
2021/04/07 05:03:01;;;;;;;8.43;5.55;;;;;;;-1.97;72.09;95695.22;1714785;83;21509;-84
2021/04/07 05:05:28;;;;;;;10.28;5.65;;;;;;;-1.92;72.19;95697.14;1720904;83;21449;-84
2021/04/07 05:07:55;;;;;;;9.35;5.20;;;;;;;-1.86;72.15;95702.23;1711240;82;21163;-84
2021/04/07 05:10:23;;;;;;;8.95;5.53;;;;;;;-1.80;71.96;95696.16;1718814;83;21133;-84
2021/04/07 05:12:49;;;;;;;10.63;5.50;;;;;;;-1.75;71.93;95698.59;1716241;83;21122;-84
2021/04/07 05:15:16;;;;;;;9.23;5.42;;;;;;;-1.70;71.77;95702.60;1704938;83;21114;-84
2021/04/07 05:17:44;;;;;;;8.50;4.62;;;;;;;-1.66;71.74;95704.55;1731640;83;21492;-84
2021/04/07 05:20:14;;;;;;;7.33;5.28;;;;;;;-1.63;71.66;95708.00;1729264;83;21087;-84
2021/04/07 05:22:41;;;;;;;8.68;5.45;;;;;;;-0.79;72.60;95705.98;1726984;81;21137;-84
2021/04/07 05:25:09;;;;;;;10.35;5.50;;;;;;;0.08;71.80;95700.61;1731641;83;21512;-84
2021/04/07 05:27:36;;;;;;;10.40;5.95;;;;;;;-0.02;70.38;95705.11;1731705;81;21091;-85
2021/04/07 05:30:04;;;;;;;10.38;6.75;;;;;;;-0.23;69.69;95709.69;1714373;82;21138;-85
2021/04/07 05:32:31;;;;;;;9.98;6.28;;;;;;;-0.26;69.59;95708.86;1732338;81;21119;-84
2021/04/07 05:34:58;;;;;;;13.00;6.30;;;;;;;-0.32;69.32;95714.45;1731727;83;21143;-85
2021/04/07 05:37:25;;;;;;;10.35;6.17;;;;;;;-0.48;69.37;95709.19;1738840;81;21641;-85
2021/04/07 05:39:52;;;;;;;10.80;6.10;;;;;;;-0.52;69.59;95719.28;1733846;81;21499;-85
2021/04/07 05:42:20;;;;;;;10.90;6.33;;;;;;;-0.08;70.07;95716.99;1731178;81;21498;-85
2021/04/07 05:44:47;;;;;;;9.28;5.87;;;;;;;0.53;69.84;95718.82;1722517;81;21474;-85
2021/04/07 05:47:14;;;;;;;7.17;4.53;;;;;;;0.51;68.60;95724.80;1729236;83;21119;-85
2021/04/07 05:49:41;;;;;;;9.83;5.92;;;;;;;0.23;68.02;95723.53;1723173;83;21165;-84
2021/04/07 05:52:08;;;;;;;8.65;5.72;;;;;;;0.23;68.02;95723.53;1709605;83;21513;-84
2021/04/07 05:54:35;;;;;;;8.68;4.92;;;;;;;0.22;67.96;95725.86;1711252;81;21717;-84
2021/04/07 05:57:02;;;;;;;11.12;6.50;;;;;;;-0.20;67.96;95732.66;1705856;83;21449;-84
2021/04/07 05:59:29;;;;;;;11.28;5.62;;;;;;;-0.20;67.96;95732.66;1710018;83;21160;-84
2021/04/07 06:01:57;;;;;;;11.12;6.35;;;;;;;-0.20;68.27;95733.17;1725640;81;21725;-84
2021/04/07 06:04:24;;;;;;;10.43;6.03;;;;;;;-0.24;68.05;95739.36;1729781;83;21178;-83
2021/04/07 06:06:51;;;;;;;9.28;5.55;;;;;;;-0.38;68.09;95745.34;1727821;83;21504;-84
2021/04/07 06:09:18;;;;;;;11.03;5.60;;;;;;;-0.55;67.93;95744.98;1728013;83;21139;-85
2021/04/07 06:11:46;;;;;;;10.30;5.80;;;;;;;-0.73;67.97;95755.80;1728430;82;21145;-85
2021/04/07 06:14:13;;;;;;;10.70;5.50;;;;;;;-0.97;68.29;95749.83;1724348;83;21628;-84
2021/04/07 06:16:40;;;;;;;10.00;5.33;;;;;;;-1.12;69.03;95759.10;1719712;83;21272;-85
2021/04/07 06:19:07;;;;;;;11.35;5.78;;;;;;;-1.12;69.03;95759.10;1712570;83;21275;-84
2021/04/07 06:21:36;;;;;;;10.35;6.03;;;;;;;-1.18;69.36;95757.38;1723542;82;21162;-84
2021/04/07 06:24:03;;;;;;;9.93;5.50;;;;;;;-1.27;69.80;95757.73;1728587;83;21621;-85
2021/04/07 06:26:31;;;;;;;10.18;5.92;;;;;;;-1.32;70.25;95762.79;1721640;83;21620;-85
2021/04/07 06:28:58;;;;;;;9.03;5.67;;;;;;;-1.34;70.84;95773.14;1715118;83;21646;-85
2021/04/07 06:31:25;;;;;;;11.05;6.17;;;;;;;-1.39;71.18;95773.02;1706336;83;21620;-85
2021/04/07 06:33:52;;;;;;;13.53;6.45;;;;;;;-1.42;71.43;95770.34;1721561;83;21458;-85
2021/04/07 06:36:20;;;;;;;11.00;6.12;;;;;;;-1.42;71.61;95772.94;1711913;83;21128;-84
2021/04/07 06:38:49;;;;;;;15.08;8.40;;;;;;;-1.33;71.79;95773.42;1710737;83;21180;-84
2021/04/07 06:41:17;;;;;;;13.08;7.28;;;;;;;-1.13;71.95;95769.98;1710261;83;21346;-84
2021/04/07 06:43:46;;;;;;;12.78;7.35;;;;;;;-0.98;72.12;95773.47;1706190;83;21649;-84
2021/04/07 06:46:13;;;;;;;15.08;8.35;;;;;;;-0.94;72.80;95782.40;1723777;82;21139;-84
2021/04/07 06:48:41;;;;;;;12.95;7.05;;;;;;;-1.09;73.56;95778.16;1713293;82;21142;-84
2021/04/07 06:51:09;;;;;;;13.53;7.97;;;;;;;-1.12;74.22;95774.70;1698680;82;21104;-84
2021/04/07 06:53:38;;;;;;;13.10;7.97;;;;;;;-1.08;74.57;95775.83;1719829;81;21124;-84
2021/04/07 06:56:12;;;;;;;12.05;7.25;;;;;;;-0.94;74.71;95777.20;1709447;83;21126;-84
2021/04/07 06:58:39;;;;;;;15.30;8.33;;;;;;;-0.73;74.45;95777.13;1718751;83;21269;-84
2021/04/07 07:01:06;;;;;;;12.80;6.22;;;;;;;-0.56;74.42;95775.92;1717134;82;21151;-84
2021/04/07 07:03:33;;;;;;;11.73;7.97;;;;;;;-0.10;74.17;95776.35;1713692;83;21151;-84
2021/04/07 07:06:01;;;;;;;11.08;7.50;;;;;;;0.05;72.86;95771.43;1722779;83;21146;-84
2021/04/07 07:08:32;;;;;;;16.67;9.98;;;;;;;-0.17;72.89;95772.56;1744757;81;21650;-84
2021/04/07 07:11:16;;;;;;;13.88;8.43;;;;;;;-0.07;73.10;95771.47;1734873;80;21167;-84
2021/04/07 07:13:44;;;;;;;17.00;10.18;;;;;;;0.48;72.77;95768.30;1724259;83;21518;-83
2021/04/07 07:16:14;;;;;;;18.70;9.78;;;;;;;1.01;71.86;95767.58;1724730;83;21136;-83
2021/04/07 07:18:44;;;;;;;12.10;7.72;;;;;;;2.77;68.92;95774.34;1739129;81;21142;-83
2021/04/07 07:21:17;;;;;;;12.73;8.18;;;;;;;3.82;65.54;95768.75;1734235;81;21507;-83
2021/04/07 07:23:47;;;;;;;10.30;7.30;;;;;;;5.17;61.97;95764.52;1740876;81;21281;-83
2021/04/07 07:26:18;;;;;;;10.25;6.62;;;;;;;6.45;57.26;95772.82;1732514;82;21265;-83
2021/04/07 07:28:53;;;;;;;10.68;7.72;;;;;;;7.38;56.24;95757.38;1733337;83;21143;-83
2021/04/07 07:31:31;;;;;;;9.28;7.22;;;;;;;7.47;52.08;95770.23;1716537;83;21301;-83
2021/04/07 07:34:02;;;;;;;8.48;6.05;;;;;;;7.07;52.79;95775.31;1735006;81;21141;-83
2021/04/07 07:36:30;;;;;;;;;;;;;;;7.23;49.75;95768.86;1731473;81;21280;-83
2021/04/07 07:38:59;;;;;;;11.05;6.92;;;;;;;5.34;52.22;95778.69;1738130;81;20167;-83
2021/04/07 07:41:35;;;;;;;8.15;5.22;;;;;;;3.81;54.85;95797.33;1727065;81;21197;-83
2021/04/07 07:44:06;;;;;;;10.00;6.25;;;;;;;4.23;55.70;95788.58;1739248;81;21150;-83
2021/04/07 07:46:36;;;;;;;13.15;7.10;;;;;;;4.38;57.86;95799.13;1722324;81;21140;-83
2021/04/07 07:49:17;;;;;;;8.68;6.40;;;;;;;3.77;55.92;95802.27;1738130;81;21268;-83
2021/04/07 07:51:47;;;;;;;8.28;5.42;;;;;;;4.97;56.56;95790.28;1736179;81;21187;-83
2021/04/07 07:54:17;;;;;;;9.97;6.67;;;;;;;6.07;52.71;95784.34;1723480;81;21141;-84
2021/04/07 07:56:45;;;;;;;8.93;7.00;;;;;;;6.92;52.25;95791.25;1734404;81;21500;-84
2021/04/07 07:59:12;;;;;;;8.93;6.62;;;;;;;7.84;52.34;95795.16;1735018;81;21263;-84
2021/04/07 08:01:46;;;;;;;7.42;5.78;;;;;;;6.57;49.39;95798.30;1733863;82;21209;-84
2021/04/07 08:04:14;;;;;;;12.07;7.78;;;;;;;5.84;50.49;95799.38;1727390;83;21119;-84
2021/04/07 08:06:44;;;;;;;9.78;7.00;;;;;;;6.96;51.82;95806.22;1736489;81;21150;-84
2021/04/07 08:09:12;;;;;;;9.23;6.30;;;;;;;5.90;50.25;95806.21;1732341;81;21127;-83
2021/04/07 08:11:47;;;;;;;9.75;6.90;;;;;;;4.22;52.47;95815.83;1731994;81;21140;-84
2021/04/07 08:14:18;;;;;;;7.67;6.03;;;;;;;5.58;55.31;95806.00;1721201;81;21113;-85
2021/04/07 08:16:47;;;;;;;9.53;6.70;;;;;;;6.89;51.59;95803.09;1728563;81;21087;-85
2021/04/07 08:19:15;;;;;;;10.32;7.50;;;;;;;5.17;51.93;95815.75;1725596;81;21300;-84
2021/04/07 08:21:47;;;;;;;10.32;6.50;;;;;;;4.08;54.09;95824.20;1727762;82;21179;-84
2021/04/07 08:24:15;;;;;;;7.60;5.47;;;;;;;3.19;55.63;95819.72;1735189;81;21540;-85
2021/04/07 08:26:45;;;;;;;10.55;6.87;;;;;;;2.43;57.76;95832.64;1728446;83;21300;-87
2021/04/07 08:29:15;;;;;;;10.93;7.17;;;;;;;2.03;59.48;95841.59;1728540;83;21092;-85
2021/04/07 08:31:49;;;;;;;10.35;7.58;;;;;;;1.76;60.20;95844.90;1741814;81;21558;-85
2021/04/07 08:34:19;;;;;;;8.48;5.87;;;;;;;1.64;60.48;95847.34;1702327;82;21479;-84
2021/04/07 08:36:47;;;;;;;;;;;;;;;1.26;61.81;95846.25;1733364;82;21096;-84
2021/04/07 08:39:20;;;;;;;8.88;5.17;;;;;;;0.99;63.13;95846.11;1725010;82;20134;-85
2021/04/07 08:41:52;;;;;;;6.80;5.00;;;;;;;0.81;64.03;95852.83;1731853;81;21162;-85
2021/04/07 08:44:20;;;;;;;6.95;4.33;;;;;;;0.80;64.70;95846.03;1724303;81;21547;-86
2021/04/07 08:46:53;;;;;;;9.48;5.87;;;;;;;0.83;64.96;95849.47;1728862;82;21662;-83
2021/04/07 08:49:41;;;;;;;9.03;6.67;;;;;;;1.04;65.00;95852.70;1728567;83;21111;-83
2021/04/07 08:52:20;;;;;;;8.28;4.92;;;;;;;1.18;64.95;95853.19;1725278;80;21244;-84
2021/04/07 08:54:52;;;;;;;10.70;6.58;;;;;;;0.95;65.23;95851.50;1729189;81;21169;-83
2021/04/07 08:57:35;;;;;;;10.28;6.97;;;;;;;1.04;65.62;95857.14;1737210;81;21627;-83
2021/04/07 09:00:15;;;;;;;10.32;7.08;;;;;;;2.12;66.46;95853.73;1730823;81;21110;-84
2021/04/07 09:02:52;;;;;;;10.00;6.47;;;;;;;4.10;62.97;95854.89;1723546;81;21137;-83
2021/04/07 09:05:38;;;;;;;8.50;4.75;;;;;;;3.28;60.69;95855.42;1728757;82;21247;-83
2021/04/07 09:08:08;;;;;;;13.48;8.05;;;;;;;2.70;61.26;95856.20;1708777;83;21139;-84
2021/04/07 09:10:44;;;;;;;;;;;;;;;2.27;61.94;95865.68;1736643;81;21123;-84
2021/04/07 09:13:19;;;;;;;20.95;13.60;;;;;;;2.19;62.10;95868.70;1712958;81;20173;-83
2021/04/07 09:15:51;;;;;;;12.98;9.20;;;;;;;2.14;62.74;95866.83;1722966;82;21131;-84
2021/04/07 09:18:38;;;;;;;16.45;10.58;;;;;;;2.79;62.52;95862.04;1721528;83;21321;-83
2021/04/07 09:21:20;;;;;;;41.98;25.60;;;;;;;3.33;61.69;95861.20;1731752;81;21585;-83
2021/04/07 09:23:57;;;;;;;9.23;6.87;;;;;;;3.76;62.03;95855.74;1730708;81;21133;-83
2021/04/07 09:26:31;;;;;;;7.58;5.67;;;;;;;3.90;60.69;95860.02;1725375;83;21152;-83
2021/04/07 09:28:58;;;;;;;5.58;4.28;;;;;;;4.14;60.72;95862.51;1738142;81;21151;-84
2021/04/07 09:31:35;;;;;;;7.03;4.45;;;;;;;3.62;56.59;95864.30;1726211;83;21146;-85
2021/04/07 09:34:03;;;;;;;5.67;3.87;;;;;;;3.24;57.25;95872.69;1744757;81;21620;-85
2021/04/07 09:36:38;;;;;;;7.80;4.55;;;;;;;2.92;57.01;95857.72;1723653;83;21255;-84
2021/04/07 09:39:12;;;;;;;6.17;4.20;;;;;;;2.56;58.28;95870.19;1728461;83;21252;-84
2021/04/07 09:41:45;;;;;;;6.55;4.47;;;;;;;2.59;58.25;95873.10;1747177;81;21144;-84
2021/04/07 09:44:16;;;;;;;7.12;5.03;;;;;;;2.73;57.36;95872.72;1730052;81;21689;-84
2021/04/07 09:46:55;;;;;;;7.15;4.70;;;;;;;2.56;58.08;95875.42;1732254;81;21141;-84
2021/04/07 09:49:27;;;;;;;5.15;3.35;;;;;;;2.53;56.96;95871.97;1711554;83;21257;-85
2021/04/07 09:51:55;;;;;;;7.87;5.12;;;;;;;2.28;55.96;95882.95;1718953;83;21176;-84
2021/04/07 09:54:26;;;;;;;8.53;4.97;;;;;;;1.99;57.52;95873.17;1723655;81;21639;-84
2021/04/07 09:57:08;;;;;;;6.03;3.45;;;;;;;1.95;57.93;95875.97;1735545;81;21136;-84
2021/04/07 09:59:52;;;;;;;6.15;4.40;;;;;;;1.87;58.17;95870.66;1717697;83;21134;-85
2021/04/07 10:02:29;;;;;;;5.25;2.67;;;;;;;1.76;58.71;95884.09;1727754;82;21265;-84
2021/04/07 10:04:59;;;;;;;13.58;7.95;;;;;;;1.68;56.82;95879.78;1727209;81;21169;-85
2021/04/07 10:07:29;;;;;;;16.27;5.85;;;;;;;1.57;57.26;95877.55;1713159;81;21282;-85
2021/04/07 10:10:00;;;;;;;13.13;4.33;;;;;;;1.65;57.51;95883.67;1695663;83;21216;-84
2021/04/07 10:12:35;;;;;;;8.00;4.03;;;;;;;1.39;58.07;95883.00;1728282;82;21521;-85
2021/04/07 10:15:07;;;;;;;9.80;4.45;;;;;;;1.19;59.71;95884.28;1732181;82;21111;-85
2021/04/07 10:17:40;;;;;;;7.95;4.33;;;;;;;1.11;59.79;95899.52;1741872;82;21139;-86
2021/04/07 10:20:16;;;;;;;8.70;4.92;;;;;;;1.51;61.32;95873.78;1734435;81;21130;-86
2021/04/07 10:22:46;;;;;;;7.73;4.37;;;;;;;2.04;61.06;95886.30;1728359;80;21590;-83
2021/04/07 10:25:17;;;;;;;7.00;4.55;;;;;;;2.27;59.84;95887.39;1723340;83;21244;-83
2021/04/07 10:27:46;;;;;;;8.43;4.33;;;;;;;2.43;59.65;95887.05;1716986;82;21178;-83
2021/04/07 10:30:17;;;;;;;7.58;3.60;;;;;;;2.70;58.32;95870.08;1720989;83;21127;-83
2021/04/07 10:32:54;;;;;;;7.03;4.35;;;;;;;2.71;58.32;95871.66;1722995;82;21130;-83
2021/04/07 10:35:25;;;;;;;9.03;5.10;;;;;;;3.06;58.48;95874.34;1709274;82;21173;-83
2021/04/07 10:37:57;;;;;;;6.97;4.28;;;;;;;3.23;57.71;95871.08;1717448;81;21622;-84
2021/04/07 10:40:29;;;;;;;6.62;4.35;;;;;;;3.06;56.90;95866.48;1738253;81;21157;-84
2021/04/07 10:42:57;;;;;;;7.15;4.60;;;;;;;3.33;58.16;95860.69;1739433;81;21531;-83
2021/04/07 10:45:27;;;;;;;7.47;4.12;;;;;;;3.96;58.09;95842.50;1752901;81;21143;-83
2021/04/07 10:48:03;;;;;;;7.70;4.80;;;;;;;4.28;58.30;95858.11;1727257;83;21133;-83
2021/04/07 10:50:40;;;;;;;7.60;4.75;;;;;;;4.48;55.88;95857.66;1734012;82;21104;-83
2021/04/07 10:53:08;;;;;;;6.53;3.72;;;;;;;4.57;55.29;95849.29;1739321;81;21266;-83
2021/04/07 10:55:36;;;;;;;6.05;3.95;;;;;;;4.70;55.21;95843.55;1735055;81;21146;-83
2021/04/07 10:58:03;;;;;;;8.13;4.12;;;;;;;4.57;53.98;95839.58;1710195;83;21112;-83
2021/04/07 11:00:40;;;;;;;7.70;3.37;;;;;;;4.69;53.10;95831.47;1748025;81;21152;-84
2021/04/07 11:03:08;;;;;;;3.67;2.60;;;;;;;4.60;52.72;95856.64;1731315;82;21129;-83
2021/04/07 11:05:46;;;;;;;5.00;2.65;;;;;;;3.99;49.50;95850.64;1733373;82;21650;-83
2021/04/07 11:08:16;;;;;;;6.90;3.05;;;;;;;3.61;49.71;95856.17;1721564;83;21352;-83
2021/04/07 11:10:48;;;;;;;4.22;2.92;;;;;;;3.34;48.11;95846.55;1710074;83;21122;-82
2021/04/07 11:13:19;;;;;;;6.42;3.62;;;;;;;3.09;50.53;95863.36;1736777;81;21124;-82
2021/04/07 11:15:47;;;;;;;5.47;2.67;;;;;;;2.96;51.25;95852.80;1723226;82;21204;-83
2021/04/07 11:18:15;;;;;;;7.85;4.08;;;;;;;2.91;52.26;95867.12;1723458;82;21204;-82
2021/04/07 11:20:44;;;;;;;7.22;4.00;;;;;;;2.84;53.65;95896.14;1727489;81;21130;-83
2021/04/07 11:23:12;;;;;;;9.08;4.72;;;;;;;2.58;58.00;95883.81;1732255;81;21148;-84
2021/04/07 11:25:43;;;;;;;5.17;3.17;;;;;;;1.86;64.36;95895.73;1727328;83;21116;-84
2021/04/07 11:28:18;;;;;;;;;;;;;;;0.97;68.92;95893.02;1731634;82;21541;-84
2021/04/07 11:30:59;;;;;;;8.68;3.33;;;;;;;0.31;71.73;95929.10;1724273;82;20165;-85
2021/04/07 11:33:29;;;;;;;;;;;;;;;-0.10;74.99;95928.24;1731284;82;21120;-85
2021/04/07 11:36:01;;;;;;;6.25;3.47;;;;;;;-0.45;76.54;95933.94;1733326;81;20196;-85
2021/04/07 11:38:27;;;;;;;7.87;4.17;;;;;;;-0.64;77.28;95928.83;1735526;81;21261;-86
2021/04/07 11:41:41;;;;;;;4.92;3.40;;;;;;;-0.69;77.78;95927.92;1726669;81;21505;-86
2021/04/07 11:43:33;;;;;;;3.62;2.47;;;;;;;-0.51;77.87;95930.94;1716364;81;21135;-85
2021/04/07 11:45:59;;;;;;;11.30;5.92;;;;;;;-0.31;77.38;95931.40;1717285;83;21213;-86